Time;durP1;ratioP1;P1;durP2;ratioP2;P2;SDS_P1;SDS_P2;PMS_P1;PMS_P2;Temp;Humidity;BMP_temperature;BMP_pressure;BME280_temperature;BME280_humidity;BME280_pressure;Samples;Min_cycle;Max_cycle;Signal;HPM_P1;HPM_P2
2022/02/10 00:06:04;;;;;;;32.05;14.58;;;;;;;4.85;78.18;97222.97;1684874;82;21090;-83
2022/02/10 00:19:00;;;;;;;8.95;5.53;;;;;;;4.82;77.71;97233.05;1698587;83;20977;-83
2022/02/10 00:21:11;;;;;;;71.65;32.20;;;;;;;4.88;77.66;97232.20;1678969;83;21081;-82
2022/02/10 00:34:24;;;;;;;31.77;15.10;;;;;;;4.94;77.14;97227.37;1626163;86;21046;-83
2022/02/10 00:36:51;;;;;;;17.42;9.90;;;;;;;4.95;77.35;97223.86;1690701;83;21011;-83
2022/02/10 00:41:49;;;;;;;8.88;5.65;;;;;;;4.97;76.93;97227.59;1675573;83;20969;-83
2022/02/10 00:44:14;;;;;;;9.85;5.78;;;;;;;5.01;77.61;97230.25;1674358;83;21000;-82
2022/02/10 00:46:40;;;;;;;53.08;25.17;;;;;;;5.01;77.16;97226.39;1675179;83;21001;-83
2022/02/10 00:49:08;;;;;;;22.15;11.15;;;;;;;5.01;77.11;97227.67;1680054;83;21114;-83
2022/02/10 00:51:34;;;;;;;12.63;7.80;;;;;;;4.97;77.22;97225.83;1680662;83;20987;-82
2022/02/10 00:54:00;;;;;;;21.50;10.50;;;;;;;4.99;77.13;97225.70;1694147;83;21367;-84
2022/02/10 00:56:26;;;;;;;22.87;11.28;;;;;;;5.02;77.13;97228.02;1687711;83;20991;-83
2022/02/10 00:59:06;;;;;;;9.00;5.45;;;;;;;5.03;76.73;97220.64;1698181;83;20988;-83
2022/02/10 01:07:04;;;;;;;19.02;9.48;;;;;;;5.11;77.38;97219.55;1683361;83;21461;-83
2022/02/10 01:12:28;;;;;;;17.15;8.63;;;;;;;5.06;76.92;97215.25;1664784;83;21439;-83
2022/02/10 01:30:38;;;;;;;7.60;5.08;;;;;;;5.24;76.40;97202.13;1686161;83;21062;-83
2022/02/10 01:33:07;;;;;;;18.25;8.33;;;;;;;5.22;76.92;97195.47;1685996;83;21552;-83
2022/02/10 01:35:31;;;;;;;5.30;3.85;;;;;;;5.22;76.30;97197.58;1677672;83;21020;-83
2022/02/10 01:37:57;;;;;;;9.80;4.90;;;;;;;5.26;76.41;97192.50;1688144;83;21005;-83
2022/02/10 02:04:19;;;;;;;34.03;16.05;;;;;;;5.39;75.56;97170.39;1623389;86;21010;-83
2022/02/10 02:06:47;;;;;;;7.53;5.17;;;;;;;5.36;75.65;97164.18;1635650;86;21049;-82
2022/02/10 02:09:15;;;;;;;8.53;5.22;;;;;;;5.32;75.63;97166.68;1673989;83;20984;-82
2022/02/10 02:11:46;;;;;;;7.87;4.37;;;;;;;5.29;75.54;97159.22;1688098;83;20988;-83
2022/02/10 02:14:15;;;;;;;17.25;8.20;;;;;;;5.27;75.50;97153.38;1675702;83;21064;-83
2022/02/10 02:16:52;;;;;;;4.05;2.72;;;;;;;5.29;75.29;97157.45;1677314;83;21501;-83
2022/02/10 02:19:19;;;;;;;6.58;4.80;;;;;;;5.33;75.20;97156.24;1686608;83;21063;-83
2022/02/10 02:21:46;;;;;;;5.70;4.37;;;;;;;5.32;75.58;97153.33;1694317;83;20976;-83
2022/02/10 02:24:15;;;;;;;8.50;4.83;;;;;;;5.29;75.78;97152.30;1698009;83;21001;-83
2022/02/10 02:26:41;;;;;;;6.03;4.22;;;;;;;5.28;75.56;97148.09;1689166;82;21424;-83
2022/02/10 02:29:10;;;;;;;3.22;2.75;;;;;;;5.27;75.43;97151.62;1696059;83;21005;-83
2022/02/10 02:31:42;;;;;;;3.70;2.50;;;;;;;5.23;76.04;97150.25;1691005;83;21034;-83
2022/02/10 02:37:24;;;;;;;6.30;4.28;;;;;;;5.23;76.12;97151.55;1696286;83;21036;-83
2022/02/10 02:39:49;;;;;;;3.33;2.83;;;;;;;5.26;75.64;97152.56;1698552;83;21046;-83
2022/02/10 03:06:39;;;;;;;3.27;2.98;;;;;;;5.07;76.92;97137.84;1687160;83;21021;-83
2022/02/10 03:09:09;;;;;;;3.77;2.72;;;;;;;5.10;77.30;97140.63;1694943;83;20981;-83
2022/02/10 03:11:35;;;;;;;3.10;2.67;;;;;;;5.07;77.25;97137.03;1695881;82;21379;-83
2022/02/10 03:14:21;;;;;;;3.05;2.58;;;;;;;5.03;77.39;97129.20;1688216;83;21056;-83
2022/02/10 03:19:31;;;;;;;1.98;1.80;;;;;;;4.97;77.69;97136.98;1690465;83;21468;-83
2022/02/10 04:03:02;;;;;;;2.40;2.20;;;;;;;4.86;78.67;97123.36;1694093;83;21421;-83
2022/02/10 04:15:50;;;;;;;2.72;2.50;;;;;;;4.81;78.68;97121.98;1645264;85;21064;-83
2022/02/10 04:29:00;;;;;;;2.50;2.30;;;;;;;4.98;78.14;97112.85;1689646;83;20967;-83
2022/02/10 05:03:28;;;;;;;3.83;3.22;;;;;;;5.26;76.54;97101.03;1655575;85;20999;-83
2022/02/10 05:16:27;;;;;;;7.22;4.33;;;;;;;5.34;76.49;97094.73;1685649;83;21023;-83
2022/02/10 05:34:15;;;;;;;17.57;9.00;;;;;;;5.27;76.23;97100.56;1621914;86;21041;-83
2022/02/10 05:36:42;;;;;;;154.90;50.08;;;;;;;5.27;76.29;97103.95;1630429;86;21011;-83
2022/02/10 05:39:17;;;;;;;14.90;6.37;;;;;;;5.28;76.05;97099.61;1628711;86;21455;-83
2022/02/10 05:42:08;;;;;;;10.35;5.55;;;;;;;5.30;76.26;97101.11;1663780;83;21445;-83
2022/02/10 05:52:43;;;;;;;126.50;39.13;;;;;;;5.35;75.86;97111.02;1675499;83;21023;-83
2022/02/10 05:57:15;;;;;;;88.25;30.80;;;;;;;5.34;75.55;97108.91;1687358;83;21060;-83
2022/02/10 06:50:20;;;;;;;23.27;8.50;;;;;;;5.61;74.85;97102.34;1634545;86;20953;-83
2022/02/10 06:52:37;;;;;;;71.77;22.50;;;;;;;5.56;74.87;97090.33;1686703;83;20996;-83
2022/02/10 07:48:27;;;;;;;141.57;58.08;;;;;;;5.91;73.35;97084.22;1695525;83;21494;-83
2022/02/10 10:02:04;;;;;;;33.10;14.93;;;;;;;7.72;69.13;97005.82;1685215;83;20964;-83
2022/02/10 10:04:35;;;;;;;21.27;10.68;;;;;;;7.81;67.50;97011.41;1674815;83;21027;-82
2022/02/10 10:07:17;;;;;;;15.80;10.30;;;;;;;7.88;68.01;97007.73;1668899;83;21008;-83
2022/02/10 10:15:26;;;;;;;13.32;7.85;;;;;;;8.13;68.22;97000.95;1671208;82;21015;-81
2022/02/10 10:18:33;;;;;;;22.10;11.08;;;;;;;8.21;68.42;96991.16;1670301;84;21479;-81
2022/02/10 10:21:14;;;;;;;18.20;9.33;;;;;;;8.29;68.37;96986.83;1670076;84;21420;-80
2022/02/10 10:26:48;;;;;;;15.05;8.48;;;;;;;8.39;67.33;96969.45;1683449;83;20948;-81
2022/02/10 10:51:24;;;;;;;10.18;5.28;;;;;;;8.38;66.22;96928.17;1678608;83;21040;-81
2022/02/10 10:53:56;;;;;;;24.90;12.05;;;;;;;8.38;65.47;96925.10;1677085;83;21119;-81
2022/02/10 10:56:22;;;;;;;9.83;5.90;;;;;;;8.41;66.01;96919.61;1679895;83;21067;-81
2022/02/10 11:38:39;;;;;;;6.15;4.15;;;;;;;9.33;64.69;96828.47;1696847;83;20977;-83
2022/02/10 11:43:46;;;;;;;4.22;3.33;;;;;;;9.31;64.17;96830.42;1693244;83;20991;-83
2022/02/10 12:30:09;;;;;;;3.92;2.83;;;;;;;9.73;63.59;96768.41;1678521;84;21031;-83
2022/02/10 14:14:10;;;;;;;6.62;4.70;;;;;;;9.15;63.55;96712.45;1673009;82;21366;-81
2022/02/10 14:16:41;;;;;;;5.33;3.70;;;;;;;9.07;63.53;96705.97;1696155;83;21018;-81
2022/02/10 14:19:30;;;;;;;6.22;3.87;;;;;;;8.99;63.38;96701.13;1674732;83;21361;-81
2022/02/10 14:21:59;;;;;;;5.37;3.45;;;;;;;8.92;63.33;96700.15;1689932;83;20971;-81
2022/02/10 14:27:00;;;;;;;22.52;13.48;;;;;;;8.77;64.07;96685.42;1684756;83;21017;-81
2022/02/10 14:29:25;;;;;;;19.10;14.13;;;;;;;8.69;63.58;96691.43;1681992;83;21001;-82
2022/02/10 14:31:54;;;;;;;15.25;9.48;;;;;;;8.63;64.21;96685.61;1687646;83;21079;-82
2022/02/10 14:34:25;;;;;;;10.32;6.10;;;;;;;8.57;64.12;96685.75;1689400;83;21048;-82
2022/02/10 14:36:49;;;;;;;17.82;10.15;;;;;;;8.53;63.90;96681.06;1688729;83;20983;-81
2022/02/10 14:39:26;;;;;;;15.32;7.53;;;;;;;8.48;63.98;96683.34;1683765;83;21028;-82
2022/02/10 15:46:30;;;;;;;45.50;19.87;;;;;;;7.68;65.83;96626.88;1677007;84;22210;-80
2022/02/10 15:49:06;;;;;;;37.60;16.73;;;;;;;7.64;65.73;96637.19;1672917;84;20976;-80
2022/02/10 16:17:20;;;;;;;30.55;15.45;;;;;;;7.41;66.66;96590.91;1681022;84;21039;-81
2022/02/10 16:19:46;;;;;;;57.90;18.67;;;;;;;7.36;66.53;96581.52;1678345;84;21262;-80
2022/02/10 16:22:24;;;;;;;27.48;12.68;;;;;;;7.34;66.64;96579.58;1679157;84;21020;-80
2022/02/10 16:24:54;;;;;;;16.90;9.28;;;;;;;7.31;66.84;96580.67;1671085;84;21624;-80
2022/02/10 16:27:23;;;;;;;20.02;10.58;;;;;;;7.27;66.74;96578.09;1681120;84;22044;-81
2022/02/10 16:29:46;;;;;;;18.70;13.83;;;;;;;7.25;67.00;96582.61;1684842;84;21008;-80
2022/02/10 16:32:12;;;;;;;14.07;8.83;;;;;;;7.26;66.96;96576.95;1686798;84;21020;-80
2022/02/10 16:34:40;;;;;;;16.25;8.85;;;;;;;7.26;66.95;96568.72;1687041;82;20955;-81
2022/02/10 16:37:11;;;;;;;16.05;9.55;;;;;;;7.26;66.84;96558.38;1678746;84;21036;-81
2022/02/10 16:39:38;;;;;;;168.93;73.72;;;;;;;7.26;66.87;96554.50;1684584;84;21021;-80
2022/02/10 16:42:06;;;;;;;242.70;117.17;;;;;;;7.28;66.28;96549.17;1692051;82;20989;-81
2022/02/10 16:44:31;;;;;;;54.25;32.20;;;;;;;7.31;66.44;96547.56;1614987;87;21437;-81
2022/02/10 16:46:57;;;;;;;38.45;24.80;;;;;;;7.30;66.46;96545.46;1694477;83;20962;-81
2022/02/10 16:49:23;;;;;;;22.98;16.97;;;;;;;7.29;65.80;96536.58;1688561;83;21024;-81
2022/02/10 16:51:49;;;;;;;19.32;12.37;;;;;;;7.30;65.93;96527.36;1686396;83;21435;-81
2022/02/10 16:57:01;;;;;;;12.50;7.75;;;;;;;7.35;65.84;96532.89;1636453;85;21065;-81
2022/02/10 17:19:04;;;;;;;23.83;10.05;;;;;;;7.37;65.31;96501.71;1632990;86;21050;-81
2022/02/10 17:26:13;;;;;;;14.25;8.75;;;;;;;7.28;65.21;96498.29;1684849;83;21034;-81
2022/02/10 17:28:28;;;;;;;54.67;22.30;;;;;;;7.31;65.39;96514.77;1691726;83;22193;-81
2022/02/10 17:33:50;;;;;;;34.05;13.78;;;;;;;7.30;65.47;96516.22;1702710;83;21016;-81
2022/02/10 17:36:13;;;;;;;16.90;8.40;;;;;;;7.26;64.92;96521.39;1683977;84;21027;-81
2022/02/10 17:41:37;;;;;;;60.85;22.95;;;;;;;7.25;64.73;96536.09;1699263;83;21034;-83
2022/02/10 17:44:07;;;;;;;72.78;23.75;;;;;;;7.27;65.17;96553.53;1692572;83;20996;-83
2022/02/10 17:46:39;;;;;;;153.00;53.50;;;;;;;7.27;64.95;96566.94;1692613;83;20937;-83
2022/02/10 17:51:46;;;;;;;50.95;15.75;;;;;;;7.30;64.84;96587.30;1702560;83;21016;-82
2022/02/10 17:54:06;;;;;;;33.53;14.40;;;;;;;7.27;64.96;96581.96;1688664;83;21680;-83
2022/02/10 17:56:33;;;;;;;17.55;9.00;;;;;;;7.27;64.84;96583.73;1698068;83;21028;-83
2022/02/10 17:59:00;;;;;;;13.32;6.80;;;;;;;7.26;64.56;96582.12;1699638;83;21450;-83
2022/02/10 18:01:26;;;;;;;21.02;10.93;;;;;;;7.27;64.63;96591.49;1698027;84;20981;-83
2022/02/10 18:03:52;;;;;;;18.85;10.25;;;;;;;7.31;64.42;96600.55;1694016;84;21476;-83
2022/02/10 18:06:23;;;;;;;243.33;101.50;;;;;;;7.28;64.93;96583.58;1688805;83;21411;-83
2022/02/10 18:12:37;;;;;;;17.65;8.98;;;;;;;7.13;65.13;96604.03;1685186;83;21400;-83
2022/02/10 18:14:09;;;;;;;32.48;14.10;;;;;;;7.06;65.02;96606.11;1682508;83;20965;-82
2022/02/10 18:16:41;;;;;;;31.02;14.30;;;;;;;7.04;64.99;96610.14;1693078;83;21052;-82
2022/02/10 18:21:49;;;;;;;21.75;9.83;;;;;;;6.99;65.02;96614.94;1691918;82;21040;-84
2022/02/10 19:07:17;;;;;;;21.17;10.58;;;;;;;7.61;63.31;96615.52;1690528;83;20969;-84
2022/02/10 19:09:41;;;;;;;19.12;11.03;;;;;;;7.64;62.72;96604.05;1674336;83;20993;-84
2022/02/10 19:12:14;;;;;;;43.52;23.73;;;;;;;7.66;62.96;96604.73;1624575;86;21329;-83
2022/02/10 19:14:36;;;;;;;27.85;11.78;;;;;;;7.67;62.34;96603.27;1676706;83;21103;-83
2022/02/10 19:17:00;;;;;;;33.23;14.25;;;;;;;7.69;62.94;96601.81;1684835;83;21057;-83
2022/02/10 19:19:26;;;;;;;33.23;12.47;;;;;;;7.68;62.33;96598.91;1678871;83;21048;-83
2022/02/10 19:21:52;;;;;;;18.57;8.35;;;;;;;7.66;62.36;96583.55;1684379;83;21087;-83
2022/02/10 19:24:17;;;;;;;11.43;6.30;;;;;;;7.68;61.99;96591.95;1690741;82;21000;-83
2022/02/10 19:26:50;;;;;;;30.40;13.43;;;;;;;7.69;62.57;96592.28;1685298;83;21451;-83
2022/02/10 19:29:22;;;;;;;21.45;10.28;;;;;;;7.68;62.64;96592.45;1695151;83;22076;-84
2022/02/10 19:31:49;;;;;;;19.67;10.00;;;;;;;7.67;62.56;96597.30;1690633;83;21612;-84
2022/02/10 19:34:15;;;;;;;21.70;10.75;;;;;;;7.66;62.75;96612.00;1698127;83;21005;-83
2022/02/10 19:36:41;;;;;;;13.83;7.75;;;;;;;7.65;62.80;96608.28;1697018;83;20976;-84
2022/02/10 19:39:08;;;;;;;12.37;8.13;;;;;;;7.65;62.43;96594.87;1689737;83;20981;-84
2022/02/10 19:41:37;;;;;;;9.90;5.83;;;;;;;7.67;62.57;96592.13;1693337;83;21068;-84
2022/02/10 19:44:04;;;;;;;17.67;8.50;;;;;;;7.67;62.67;96595.52;1698029;83;21016;-84
2022/02/10 19:46:30;;;;;;;11.05;6.42;;;;;;;7.69;61.78;96592.77;1701842;83;21060;-84
2022/02/10 19:48:57;;;;;;;22.90;11.95;;;;;;;7.69;62.84;96605.70;1698012;83;21044;-84
2022/02/10 19:51:22;;;;;;;15.58;9.00;;;;;;;7.68;62.93;96610.06;1636725;86;22144;-84
2022/02/10 19:53:49;;;;;;;21.30;10.28;;;;;;;7.67;62.64;96626.55;1698716;82;20996;-84
2022/02/10 19:56:15;;;;;;;15.30;9.80;;;;;;;7.68;62.87;96619.60;1699042;83;20981;-84
2022/02/10 19:58:41;;;;;;;12.43;6.10;;;;;;;7.68;62.84;96640.30;1695536;83;20984;-84
2022/02/10 20:01:08;;;;;;;17.62;9.58;;;;;;;7.67;62.63;96636.89;1699777;83;20972;-83
2022/02/10 20:03:38;;;;;;;13.55;9.15;;;;;;;7.69;63.13;96631.08;1621913;86;21044;-84
2022/02/10 20:06:04;;;;;;;14.35;8.68;;;;;;;7.68;63.35;96626.06;1698398;83;21008;-84
2022/02/10 20:08:31;;;;;;;12.18;7.08;;;;;;;7.64;62.97;96619.08;1700928;83;21091;-83
2022/02/10 20:10:57;;;;;;;13.50;7.67;;;;;;;7.65;62.98;96619.44;1619888;87;21373;-85
2022/02/10 20:13:27;;;;;;;14.47;8.20;;;;;;;7.65;63.27;96623.31;1694905;83;21020;-85
2022/02/10 20:15:54;;;;;;;12.58;6.92;;;;;;;7.64;63.50;96636.38;1699862;83;21009;-85
2022/02/10 20:18:21;;;;;;;15.60;8.40;;;;;;;7.62;63.47;96645.59;1648851;86;21514;-85
2022/02/10 20:20:53;;;;;;;10.75;6.25;;;;;;;7.39;63.33;96611.74;1705357;82;21024;-84
2022/02/10 20:23:17;;;;;;;10.58;5.87;;;;;;;7.64;63.36;96663.05;1702563;83;21035;-85
2022/02/10 20:25:43;;;;;;;12.98;7.22;;;;;;;7.65;63.30;96665.18;1637315;86;21062;-85
2022/02/10 20:28:10;;;;;;;16.93;8.60;;;;;;;7.65;63.40;96663.41;1627627;86;21405;-85
2022/02/10 20:30:37;;;;;;;11.48;6.10;;;;;;;7.65;63.42;96654.84;1632893;86;21012;-84
2022/02/10 20:33:03;;;;;;;44.05;16.55;;;;;;;7.64;63.55;96648.83;1650271;84;21368;-85
2022/02/10 20:35:29;;;;;;;19.05;9.68;;;;;;;7.65;63.77;96652.25;1679996;82;20968;-85
2022/02/10 20:38:00;;;;;;;15.00;8.25;;;;;;;7.64;63.74;96655.77;1683488;83;20988;-84
2022/02/10 20:40:22;;;;;;;7.53;5.50;;;;;;;7.62;63.80;96657.70;1672214;83;21458;-84
2022/02/10 20:42:48;;;;;;;11.45;5.90;;;;;;;7.62;63.79;96657.70;1680667;83;21008;-85
2022/02/10 20:45:14;;;;;;;13.32;8.65;;;;;;;7.61;63.83;96659.48;1690583;83;20976;-84
2022/02/10 20:47:40;;;;;;;18.48;11.57;;;;;;;7.61;63.92;96650.92;1675481;83;21054;-85
2022/02/10 20:50:06;;;;;;;20.90;12.03;;;;;;;7.58;63.82;96648.65;1689135;83;21010;-84
2022/02/10 20:52:32;;;;;;;19.82;11.50;;;;;;;7.58;63.84;96652.53;1680468;83;21068;-84
2022/02/10 20:54:59;;;;;;;12.58;7.60;;;;;;;7.58;63.79;96662.87;1669083;83;21038;-85
2022/02/10 20:57:26;;;;;;;12.63;7.50;;;;;;;7.58;63.63;96646.06;1692509;83;21008;-85
2022/02/10 20:59:53;;;;;;;9.75;6.37;;;;;;;7.58;64.07;96651.23;1629021;86;21112;-85
2022/02/10 21:02:28;;;;;;;10.08;7.22;;;;;;;7.55;64.25;96656.24;1688986;83;21007;-84
2022/02/10 21:05:01;;;;;;;7.60;6.33;;;;;;;7.53;64.35;96661.57;1688838;83;21425;-85
2022/02/10 21:07:29;;;;;;;6.70;5.58;;;;;;;7.52;64.23;96657.85;1682854;83;21079;-85
2022/02/10 21:10:01;;;;;;;9.15;6.30;;;;;;;7.50;64.10;96647.66;1682600;83;21000;-84
2022/02/10 21:12:28;;;;;;;7.42;5.80;;;;;;;7.50;64.21;96657.20;1661995;83;21439;-84
2022/02/10 21:14:52;;;;;;;7.40;6.05;;;;;;;7.51;64.33;96647.19;1680040;83;21078;-84
2022/02/10 21:17:23;;;;;;;10.75;7.00;;;;;;;7.47;64.31;96645.37;1681801;83;20961;-84
2022/02/10 21:19:46;;;;;;;9.30;7.08;;;;;;;7.47;64.42;96649.73;1676893;83;21031;-84
2022/02/10 21:22:16;;;;;;;9.75;7.50;;;;;;;7.44;64.57;96639.70;1680748;83;21003;-84
2022/02/10 21:24:45;;;;;;;10.05;6.47;;;;;;;7.41;64.59;96634.37;1675613;83;20977;-84
2022/02/10 21:29:54;;;;;;;9.10;7.37;;;;;;;7.39;64.37;96643.25;1702961;83;21075;-83
2022/02/10 21:32:15;;;;;;;8.18;5.33;;;;;;;7.37;64.12;96642.59;1647793;86;21010;-84
2022/02/10 21:34:59;;;;;;;10.40;6.75;;;;;;;7.35;64.51;96642.75;1709203;83;21063;-84
2022/02/10 21:37:12;;;;;;;9.18;6.58;;;;;;;7.35;64.41;96647.92;1647965;86;21017;-83
2022/02/10 21:39:52;;;;;;;8.98;7.05;;;;;;;7.30;64.75;96637.70;1646702;86;21034;-83
2022/02/10 21:59:19;;;;;;;18.23;10.08;;;;;;;7.30;65.30;96638.52;1676091;83;21669;-83
2022/02/10 22:11:28;;;;;;;10.15;7.08;;;;;;;7.21;65.40;96654.48;1699376;83;21028;-84
2022/02/10 22:19:09;;;;;;;8.08;6.45;;;;;;;7.14;65.39;96665.08;1697008;83;20937;-83
2022/02/10 22:21:31;;;;;;;10.70;7.03;;;;;;;7.11;65.72;96666.69;1631422;86;21048;-83
2022/02/10 22:23:56;;;;;;;9.90;7.05;;;;;;;7.10;65.95;96668.95;1698301;83;21340;-82
2022/02/10 22:26:25;;;;;;;21.00;12.33;;;;;;;7.07;66.09;96671.84;1704588;83;21070;-83
2022/02/10 22:36:35;;;;;;;10.78;7.97;;;;;;;6.98;66.48;96679.67;1659462;84;21086;-83
2022/02/10 22:39:02;;;;;;;10.55;7.45;;;;;;;6.98;66.38;96682.27;1694820;83;21077;-83
2022/02/10 22:41:28;;;;;;;8.93;7.00;;;;;;;6.99;66.32;96680.81;1682725;84;21059;-83
2022/02/10 22:43:54;;;;;;;10.28;7.08;;;;;;;6.98;66.47;96688.24;1684054;83;20965;-83
2022/02/10 22:46:21;;;;;;;10.45;8.23;;;;;;;6.99;66.46;96691.63;1679622;83;21358;-83
2022/02/10 22:48:48;;;;;;;9.00;6.83;;;;;;;6.97;66.60;96689.69;1667700;83;21429;-83
2022/02/10 22:51:16;;;;;;;10.58;7.55;;;;;;;6.97;66.64;96689.69;1665506;84;20984;-83
2022/02/10 22:53:42;;;;;;;9.88;7.10;;;;;;;6.93;66.80;96687.89;1667243;84;21031;-83
2022/02/10 22:56:11;;;;;;;11.50;7.58;;;;;;;6.88;66.79;96689.64;1679282;84;21057;-82
2022/02/10 22:58:40;;;;;;;12.95;8.08;;;;;;;6.86;66.95;96692.86;1675247;84;20976;-82
2022/02/10 23:01:10;;;;;;;11.18;8.10;;;;;;;6.81;66.97;96704.11;1670159;83;20956;-83
2022/02/10 23:03:36;;;;;;;12.50;8.43;;;;;;;6.77;67.22;96707.15;1682686;83;21007;-83
2022/02/10 23:06:03;;;;;;;10.68;8.13;;;;;;;6.75;67.28;96706.48;1676738;83;20962;-83
2022/02/10 23:08:29;;;;;;;9.95;8.20;;;;;;;6.74;67.41;96710.03;1670467;84;21039;-83
2022/02/10 23:10:55;;;;;;;12.98;8.53;;;;;;;6.75;67.38;96712.95;1681621;84;21363;-83
2022/02/10 23:13:28;;;;;;;11.43;8.80;;;;;;;6.75;67.41;96716.82;1668515;84;20981;-83
2022/02/10 23:15:57;;;;;;;10.95;7.92;;;;;;;6.74;67.42;96714.72;1674088;84;20996;-83
2022/02/10 23:18:25;;;;;;;15.08;9.88;;;;;;;6.75;67.54;96718.92;1667941;84;21060;-83
2022/02/10 23:20:55;;;;;;;13.03;9.55;;;;;;;6.72;67.69;96714.55;1681393;83;21434;-85
2022/02/10 23:23:22;;;;;;;16.25;11.57;;;;;;;6.72;67.83;96721.00;1675538;84;20996;-83
2022/02/10 23:25:50;;;;;;;28.20;15.03;;;;;;;6.68;67.88;96724.84;1686116;83;21087;-83
2022/02/10 23:28:19;;;;;;;13.53;9.75;;;;;;;6.66;67.94;96718.52;1670861;83;21038;-83
2022/02/10 23:30:46;;;;;;;19.48;12.37;;;;;;;6.64;68.10;96716.56;1670821;84;21027;-83
2022/02/10 23:33:21;;;;;;;46.13;19.87;;;;;;;6.60;68.28;96722.51;1668691;83;21004;-83
2022/02/10 23:38:36;;;;;;;20.12;13.25;;;;;;;6.56;68.52;96721.19;1671728;84;21352;-84
2022/02/10 23:43:36;;;;;;;14.90;11.25;;;;;;;6.57;68.55;96720.71;1665636;83;21371;-83
2022/02/10 23:46:02;;;;;;;29.72;16.02;;;;;;;6.58;68.65;96720.56;1673783;83;21022;-83
2022/02/10 23:48:29;;;;;;;33.92;16.65;;;;;;;6.58;68.72;96719.27;1675425;83;20985;-83
2022/02/10 23:50:55;;;;;;;26.12;14.73;;;;;;;6.58;68.81;96721.84;1683315;84;20982;-83
2022/02/10 23:53:20;;;;;;;19.05;13.18;;;;;;;6.59;68.90;96719.59;1675819;84;20956;-82
2022/02/10 23:55:48;;;;;;;22.93;14.70;;;;;;;6.57;68.89;96715.55;1681349;83;21026;-83
